sensor_id;sensor_type;location;lat;lon;timestamp;P1;durP1;ratioP1;P2;durP2;ratioP2
68319;SDS011;55168;51.120;17.024;2022-12-07T00:00:00;15.9;;;13.5;;
68319;SDS011;55168;51.120;17.024;2022-12-07T00:01:09;15.5;;;12.9;;
68319;SDS011;55168;51.120;17.024;2022-12-07T00:02:00;15.5;;;12.9;;
68319;SDS011;55168;51.120;17.024;2022-12-07T00:03:00;15.5;;;12.9;;
68319;SDS011;55168;51.120;17.024;2022-12-07T00:04:01;15.5;;;12.9;;
68319;SDS011;55168;51.120;17.024;2022-12-07T00:05:00;14.7;;;11.3;;
68319;SDS011;55168;51.120;17.024;2022-12-07T00:06:00;14.7;;;11.3;;
68319;SDS011;55168;51.120;17.024;2022-12-07T00:07:00;14.7;;;11.3;;
68319;SDS011;55168;51.120;17.024;2022-12-07T00:08:00;14.7;;;11.3;;
68319;SDS011;55168;51.120;17.024;2022-12-07T00:09:00;14.7;;;11.3;;
68319;SDS011;55168;51.120;17.024;2022-12-07T00:10:00;12.9;;;10.9;;
68319;SDS011;55168;51.120;17.024;2022-12-07T00:11:00;12.9;;;10.9;;
68319;SDS011;55168;51.120;17.024;2022-12-07T00:12:00;12.9;;;10.9;;
68319;SDS011;55168;51.120;17.024;2022-12-07T00:13:00;12.9;;;10.9;;
68319;SDS011;55168;51.120;17.024;2022-12-07T00:14:02;12.9;;;10.9;;
68319;SDS011;55168;51.120;17.024;2022-12-07T00:15:00;12.6;;;11.0;;
68319;SDS011;55168;51.120;17.024;2022-12-07T00:16:05;12.6;;;11.0;;
68319;SDS011;55168;51.120;17.024;2022-12-07T00:17:00;12.6;;;11.0;;
68319;SDS011;55168;51.120;17.024;2022-12-07T00:18:00;12.6;;;11.0;;
68319;SDS011;55168;51.120;17.024;2022-12-07T00:19:00;12.6;;;11.0;;
68319;SDS011;55168;51.120;17.024;2022-12-07T00:20:00;11.8;;;10.0;;
68319;SDS011;55168;51.120;17.024;2022-12-07T00:21:01;11.8;;;10.0;;
68319;SDS011;55168;51.120;17.024;2022-12-07T00:22:00;11.8;;;10.0;;
68319;SDS011;55168;51.120;17.024;2022-12-07T00:23:00;11.8;;;10.0;;
68319;SDS011;55168;51.120;17.024;2022-12-07T00:24:00;11.8;;;10.0;;
68319;SDS011;55168;51.120;17.024;2022-12-07T00:25:00;11.2;;;10.0;;
68319;SDS011;55168;51.120;17.024;2022-12-07T00:26:06;11.2;;;10.0;;
68319;SDS011;55168;51.120;17.024;2022-12-07T00:27:00;11.2;;;10.0;;
68319;SDS011;55168;51.120;17.024;2022-12-07T00:28:00;11.2;;;10.0;;
68319;SDS011;55168;51.120;17.024;2022-12-07T00:29:04;11.2;;;10.0;;
68319;SDS011;55168;51.120;17.024;2022-12-07T00:30:00;10.4;;;8.9;;
68319;SDS011;55168;51.120;17.024;2022-12-07T00:31:01;10.4;;;8.9;;
68319;SDS011;55168;51.120;17.024;2022-12-07T00:32:00;10.4;;;8.9;;
68319;SDS011;55168;51.120;17.024;2022-12-07T00:33:00;10.4;;;8.9;;
68319;SDS011;55168;51.120;17.024;2022-12-07T00:34:00;10.4;;;8.9;;
68319;SDS011;55168;51.120;17.024;2022-12-07T00:35:00;9.8;;;8.8;;
68319;SDS011;55168;51.120;17.024;2022-12-07T00:36:02;9.8;;;8.8;;
68319;SDS011;55168;51.120;17.024;2022-12-07T00:37:00;9.8;;;8.8;;
68319;SDS011;55168;51.120;17.024;2022-12-07T00:38:00;9.8;;;8.8;;
68319;SDS011;55168;51.120;17.024;2022-12-07T00:39:00;9.8;;;8.8;;
68319;SDS011;55168;51.120;17.024;2022-12-07T00:40:00;9.8;;;8.8;;
68319;SDS011;55168;51.120;17.024;2022-12-07T00:41:03;9.8;;;8.8;;
68319;SDS011;55168;51.120;17.024;2022-12-07T00:42:00;9.8;;;8.8;;
68319;SDS011;55168;51.120;17.024;2022-12-07T00:43:00;9.8;;;8.8;;
68319;SDS011;55168;51.120;17.024;2022-12-07T00:44:00;9.8;;;8.8;;
68319;SDS011;55168;51.120;17.024;2022-12-07T00:45:00;8.6;;;7.7;;
68319;SDS011;55168;51.120;17.024;2022-12-07T00:46:00;8.6;;;7.7;;
68319;SDS011;55168;51.120;17.024;2022-12-07T00:47:00;8.6;;;7.7;;
68319;SDS011;55168;51.120;17.024;2022-12-07T00:48:00;8.6;;;7.7;;
68319;SDS011;55168;51.120;17.024;2022-12-07T00:49:00;8.6;;;7.7;;
68319;SDS011;55168;51.120;17.024;2022-12-07T00:50:00;8.7;;;7.1;;
68319;SDS011;55168;51.120;17.024;2022-12-07T00:51:00;8.7;;;7.1;;
68319;SDS011;55168;51.120;17.024;2022-12-07T00:52:00;8.7;;;7.1;;
68319;SDS011;55168;51.120;17.024;2022-12-07T00:53:00;8.7;;;7.1;;
68319;SDS011;55168;51.120;17.024;2022-12-07T00:54:00;8.7;;;7.1;;
68319;SDS011;55168;51.120;17.024;2022-12-07T00:55:00;8.8;;;7.9;;
68319;SDS011;55168;51.120;17.024;2022-12-07T00:56:08;8.8;;;7.9;;
68319;SDS011;55168;51.120;17.024;2022-12-07T00:57:00;8.8;;;7.9;;
68319;SDS011;55168;51.120;17.024;2022-12-07T00:58:00;8.8;;;7.9;;
68319;SDS011;55168;51.120;17.024;2022-12-07T00:59:01;8.8;;;7.9;;
68319;SDS011;55168;51.120;17.024;2022-12-07T01:00:00;8.2;;;7.1;;
68319;SDS011;55168;51.120;17.024;2022-12-07T01:01:00;8.2;;;7.1;;
68319;SDS011;55168;51.120;17.024;2022-12-07T01:02:00;8.2;;;7.1;;
68319;SDS011;55168;51.120;17.024;2022-12-07T01:03:00;8.2;;;7.1;;
68319;SDS011;55168;51.120;17.024;2022-12-07T01:04:00;8.2;;;7.1;;
68319;SDS011;55168;51.120;17.024;2022-12-07T01:05:00;7.0;;;6.3;;
68319;SDS011;55168;51.120;17.024;2022-12-07T01:06:00;7.0;;;6.3;;
68319;SDS011;55168;51.120;17.024;2022-12-07T01:07:00;7.0;;;6.3;;
68319;SDS011;55168;51.120;17.024;2022-12-07T01:08:00;7.0;;;6.3;;
68319;SDS011;55168;51.120;17.024;2022-12-07T01:09:00;7.0;;;6.3;;
68319;SDS011;55168;51.120;17.024;2022-12-07T01:10:00;6.9;;;5.9;;
68319;SDS011;55168;51.120;17.024;2022-12-07T01:11:04;6.9;;;5.9;;
68319;SDS011;55168;51.120;17.024;2022-12-07T01:12:00;6.9;;;5.9;;
68319;SDS011;55168;51.120;17.024;2022-12-07T01:13:00;6.9;;;5.9;;
68319;SDS011;55168;51.120;17.024;2022-12-07T01:14:00;6.9;;;5.9;;
68319;SDS011;55168;51.120;17.024;2022-12-07T01:15:00;6.5;;;5.8;;
68319;SDS011;55168;51.120;17.024;2022-12-07T01:16:02;6.5;;;5.8;;
68319;SDS011;55168;51.120;17.024;2022-12-07T01:17:00;6.5;;;5.8;;
68319;SDS011;55168;51.120;17.024;2022-12-07T01:18:00;6.5;;;5.8;;
68319;SDS011;55168;51.120;17.024;2022-12-07T01:19:01;6.5;;;5.8;;
68319;SDS011;55168;51.120;17.024;2022-12-07T01:20:00;6.1;;;5.4;;
68319;SDS011;55168;51.120;17.024;2022-12-07T01:21:03;6.1;;;5.4;;
68319;SDS011;55168;51.120;17.024;2022-12-07T01:22:00;6.1;;;5.4;;
68319;SDS011;55168;51.120;17.024;2022-12-07T01:23:00;6.1;;;5.4;;
68319;SDS011;55168;51.120;17.024;2022-12-07T01:24:00;6.1;;;5.4;;
68319;SDS011;55168;51.120;17.024;2022-12-07T01:25:00;5.7;;;5.2;;
68319;SDS011;55168;51.120;17.024;2022-12-07T01:26:02;5.7;;;5.2;;
68319;SDS011;55168;51.120;17.024;2022-12-07T01:27:00;5.7;;;5.2;;
68319;SDS011;55168;51.120;17.024;2022-12-07T01:28:00;5.7;;;5.2;;
68319;SDS011;55168;51.120;17.024;2022-12-07T01:29:00;5.7;;;5.2;;
68319;SDS011;55168;51.120;17.024;2022-12-07T01:30:00;5.8;;;5.1;;
68319;SDS011;55168;51.120;17.024;2022-12-07T01:31:02;5.8;;;5.1;;
68319;SDS011;55168;51.120;17.024;2022-12-07T01:32:00;5.8;;;5.1;;
68319;SDS011;55168;51.120;17.024;2022-12-07T01:33:00;5.8;;;5.1;;
68319;SDS011;55168;51.120;17.024;2022-12-07T01:34:00;5.8;;;5.1;;
68319;SDS011;55168;51.120;17.024;2022-12-07T01:35:00;5.3;;;4.8;;
68319;SDS011;55168;51.120;17.024;2022-12-07T01:36:05;5.3;;;4.8;;
68319;SDS011;55168;51.120;17.024;2022-12-07T01:37:00;5.3;;;4.8;;
68319;SDS011;55168;51.120;17.024;2022-12-07T01:38:00;5.3;;;4.8;;
68319;SDS011;55168;51.120;17.024;2022-12-07T01:39:03;5.3;;;4.8;;
68319;SDS011;55168;51.120;17.024;2022-12-07T01:40:00;5.1;;;4.6;;
68319;SDS011;55168;51.120;17.024;2022-12-07T01:41:01;5.1;;;4.6;;
68319;SDS011;55168;51.120;17.024;2022-12-07T01:42:00;5.1;;;4.6;;
68319;SDS011;55168;51.120;17.024;2022-12-07T01:43:00;5.1;;;4.6;;
68319;SDS011;55168;51.120;17.024;2022-12-07T01:45:20;5.6;;;5.0;;
68319;SDS011;55168;51.120;17.024;2022-12-07T01:46:03;5.6;;;5.0;;
68319;SDS011;55168;51.120;17.024;2022-12-07T01:47:03;5.6;;;5.0;;
68319;SDS011;55168;51.120;17.024;2022-12-07T01:48:00;5.6;;;5.0;;
68319;SDS011;55168;51.120;17.024;2022-12-07T01:49:00;5.6;;;5.0;;
68319;SDS011;55168;51.120;17.024;2022-12-07T01:50:00;5.3;;;4.4;;
68319;SDS011;55168;51.120;17.024;2022-12-07T01:51:04;5.3;;;4.4;;
68319;SDS011;55168;51.120;17.024;2022-12-07T01:52:10;5.3;;;4.4;;
68319;SDS011;55168;51.120;17.024;2022-12-07T01:53:03;5.3;;;4.4;;
68319;SDS011;55168;51.120;17.024;2022-12-07T01:54:00;5.3;;;4.4;;
68319;SDS011;55168;51.120;17.024;2022-12-07T01:55:05;5.0;;;4.4;;
68319;SDS011;55168;51.120;17.024;2022-12-07T01:56:00;5.0;;;4.4;;
68319;SDS011;55168;51.120;17.024;2022-12-07T01:57:00;5.0;;;4.4;;
68319;SDS011;55168;51.120;17.024;2022-12-07T01:58:00;5.0;;;4.4;;
68319;SDS011;55168;51.120;17.024;2022-12-07T01:59:00;5.0;;;4.4;;
68319;SDS011;55168;51.120;17.024;2022-12-07T02:00:00;4.8;;;4.4;;
68319;SDS011;55168;51.120;17.024;2022-12-07T02:01:00;4.8;;;4.4;;
68319;SDS011;55168;51.120;17.024;2022-12-07T02:02:02;4.8;;;4.4;;
68319;SDS011;55168;51.120;17.024;2022-12-07T02:03:06;4.8;;;4.4;;
68319;SDS011;55168;51.120;17.024;2022-12-07T02:04:00;4.8;;;4.4;;
68319;SDS011;55168;51.120;17.024;2022-12-07T02:05:02;4.7;;;4.3;;
68319;SDS011;55168;51.120;17.024;2022-12-07T02:06:00;4.7;;;4.3;;
68319;SDS011;55168;51.120;17.024;2022-12-07T02:07:00;4.7;;;4.3;;
68319;SDS011;55168;51.120;17.024;2022-12-07T02:08:00;4.7;;;4.3;;
68319;SDS011;55168;51.120;17.024;2022-12-07T02:09:00;4.7;;;4.3;;
68319;SDS011;55168;51.120;17.024;2022-12-07T02:10:11;4.5;;;4.1;;
68319;SDS011;55168;51.120;17.024;2022-12-07T02:11:02;4.5;;;4.1;;
68319;SDS011;55168;51.120;17.024;2022-12-07T02:12:00;4.5;;;4.1;;
68319;SDS011;55168;51.120;17.024;2022-12-07T02:13:04;4.5;;;4.1;;
68319;SDS011;55168;51.120;17.024;2022-12-07T02:14:00;4.5;;;4.1;;
68319;SDS011;55168;51.120;17.024;2022-12-07T02:15:00;5.8;;;4.5;;
68319;SDS011;55168;51.120;17.024;2022-12-07T02:17:08;5.8;;;4.5;;
68319;SDS011;55168;51.120;17.024;2022-12-07T02:18:11;5.8;;;4.5;;
68319;SDS011;55168;51.120;17.024;2022-12-07T02:20:09;4.6;;;4.2;;
68319;SDS011;55168;51.120;17.024;2022-12-07T02:22:16;4.6;;;4.2;;
68319;SDS011;55168;51.120;17.024;2022-12-07T02:23:19;4.6;;;4.2;;
68319;SDS011;55168;51.120;17.024;2022-12-07T02:25:14;4.6;;;4.2;;
68319;SDS011;55168;51.120;17.024;2022-12-07T02:26:19;4.6;;;4.2;;
68319;SDS011;55168;51.120;17.024;2022-12-07T02:28:19;4.6;;;4.2;;
68319;SDS011;55168;51.120;17.024;2022-12-07T02:29:11;4.6;;;4.2;;
68319;SDS011;55168;51.120;17.024;2022-12-07T02:30:04;4.4;;;4.0;;
68319;SDS011;55168;51.120;17.024;2022-12-07T02:31:11;4.4;;;4.0;;
68319;SDS011;55168;51.120;17.024;2022-12-07T02:33:04;4.4;;;4.0;;
68319;SDS011;55168;51.120;17.024;2022-12-07T02:34:07;4.4;;;4.0;;
68319;SDS011;55168;51.120;17.024;2022-12-07T02:35:12;5.0;;;4.3;;
68319;SDS011;55168;51.120;17.024;2022-12-07T02:36:05;5.0;;;4.3;;
68319;SDS011;55168;51.120;17.024;2022-12-07T02:37:03;5.0;;;4.3;;
68319;SDS011;55168;51.120;17.024;2022-12-07T02:39:06;5.0;;;4.3;;
68319;SDS011;55168;51.120;17.024;2022-12-07T02:40:06;4.8;;;4.4;;
68319;SDS011;55168;51.120;17.024;2022-12-07T02:41:12;4.8;;;4.4;;
68319;SDS011;55168;51.120;17.024;2022-12-07T02:42:07;4.8;;;4.4;;
68319;SDS011;55168;51.120;17.024;2022-12-07T02:43:06;4.8;;;4.4;;
68319;SDS011;55168;51.120;17.024;2022-12-07T02:44:04;4.8;;;4.4;;
68319;SDS011;55168;51.120;17.024;2022-12-07T02:45:00;5.1;;;4.6;;
68319;SDS011;55168;51.120;17.024;2022-12-07T02:46:05;5.1;;;4.6;;
68319;SDS011;55168;51.120;17.024;2022-12-07T02:47:05;5.1;;;4.6;;
68319;SDS011;55168;51.120;17.024;2022-12-07T02:48:00;5.1;;;4.6;;
68319;SDS011;55168;51.120;17.024;2022-12-07T02:49:00;5.1;;;4.6;;
68319;SDS011;55168;51.120;17.024;2022-12-07T02:50:02;5.2;;;4.7;;
68319;SDS011;55168;51.120;17.024;2022-12-07T02:51:00;5.2;;;4.7;;
68319;SDS011;55168;51.120;17.024;2022-12-07T02:52:00;5.2;;;4.7;;
68319;SDS011;55168;51.120;17.024;2022-12-07T02:53:00;5.2;;;4.7;;
68319;SDS011;55168;51.120;17.024;2022-12-07T02:54:00;5.2;;;4.7;;
68319;SDS011;55168;51.120;17.024;2022-12-07T02:55:00;4.9;;;4.5;;
68319;SDS011;55168;51.120;17.024;2022-12-07T02:56:05;4.9;;;4.5;;
68319;SDS011;55168;51.120;17.024;2022-12-07T02:57:09;4.9;;;4.5;;
68319;SDS011;55168;51.120;17.024;2022-12-07T03:00:09;5.2;;;4.7;;
68319;SDS011;55168;51.120;17.024;2022-12-07T03:03:04;5.2;;;4.7;;
68319;SDS011;55168;51.120;17.024;2022-12-07T03:06:11;5.3;;;4.9;;
68319;SDS011;55168;51.120;17.024;2022-12-07T03:07:05;5.3;;;4.9;;
68319;SDS011;55168;51.120;17.024;2022-12-07T03:09:10;5.3;;;4.9;;
68319;SDS011;55168;51.120;17.024;2022-12-07T03:10:03;5.7;;;5.2;;
68319;SDS011;55168;51.120;17.024;2022-12-07T03:11:05;5.7;;;5.2;;
68319;SDS011;55168;51.120;17.024;2022-12-07T03:12:08;5.7;;;5.2;;
68319;SDS011;55168;51.120;17.024;2022-12-07T03:14:09;5.7;;;5.2;;
68319;SDS011;55168;51.120;17.024;2022-12-07T03:15:05;5.4;;;4.9;;
68319;SDS011;55168;51.120;17.024;2022-12-07T03:16:13;5.4;;;4.9;;
68319;SDS011;55168;51.120;17.024;2022-12-07T03:18:02;5.4;;;4.9;;
68319;SDS011;55168;51.120;17.024;2022-12-07T03:19:05;5.4;;;4.9;;
68319;SDS011;55168;51.120;17.024;2022-12-07T03:20:02;5.6;;;5.1;;
68319;SDS011;55168;51.120;17.024;2022-12-07T03:21:03;5.6;;;5.1;;
68319;SDS011;55168;51.120;17.024;2022-12-07T03:22:02;5.6;;;5.1;;
68319;SDS011;55168;51.120;17.024;2022-12-07T03:23:00;5.6;;;5.1;;
68319;SDS011;55168;51.120;17.024;2022-12-07T03:24:04;5.6;;;5.1;;
68319;SDS011;55168;51.120;17.024;2022-12-07T03:25:04;6.0;;;5.5;;
68319;SDS011;55168;51.120;17.024;2022-12-07T03:26:00;6.0;;;5.5;;
68319;SDS011;55168;51.120;17.024;2022-12-07T03:27:26;6.0;;;5.5;;
68319;SDS011;55168;51.120;17.024;2022-12-07T03:28:05;6.0;;;5.5;;
68319;SDS011;55168;51.120;17.024;2022-12-07T03:29:05;6.0;;;5.5;;
68319;SDS011;55168;51.120;17.024;2022-12-07T03:30:11;6.1;;;5.5;;
68319;SDS011;55168;51.120;17.024;2022-12-07T03:31:05;6.1;;;5.5;;
68319;SDS011;55168;51.120;17.024;2022-12-07T03:32:06;6.1;;;5.5;;
68319;SDS011;55168;51.120;17.024;2022-12-07T03:33:06;6.1;;;5.5;;
68319;SDS011;55168;51.120;17.024;2022-12-07T03:35:05;6.3;;;5.8;;
68319;SDS011;55168;51.120;17.024;2022-12-07T03:36:05;6.3;;;5.8;;
68319;SDS011;55168;51.120;17.024;2022-12-07T03:37:05;6.3;;;5.8;;
68319;SDS011;55168;51.120;17.024;2022-12-07T03:38:05;6.3;;;5.8;;
68319;SDS011;55168;51.120;17.024;2022-12-07T03:39:09;6.3;;;5.8;;
68319;SDS011;55168;51.120;17.024;2022-12-07T03:40:12;5.7;;;5.2;;
68319;SDS011;55168;51.120;17.024;2022-12-07T03:41:05;5.7;;;5.2;;
68319;SDS011;55168;51.120;17.024;2022-12-07T03:42:00;5.7;;;5.2;;
68319;SDS011;55168;51.120;17.024;2022-12-07T03:43:01;5.7;;;5.2;;
68319;SDS011;55168;51.120;17.024;2022-12-07T03:44:00;5.7;;;5.2;;
68319;SDS011;55168;51.120;17.024;2022-12-07T03:45:02;6.7;;;6.0;;
68319;SDS011;55168;51.120;17.024;2022-12-07T03:46:17;6.7;;;6.0;;
68319;SDS011;55168;51.120;17.024;2022-12-07T03:47:04;6.7;;;6.0;;
68319;SDS011;55168;51.120;17.024;2022-12-07T03:48:07;6.7;;;6.0;;
68319;SDS011;55168;51.120;17.024;2022-12-07T03:49:16;6.7;;;6.0;;
68319;SDS011;55168;51.120;17.024;2022-12-07T03:50:28;6.0;;;5.5;;
68319;SDS011;55168;51.120;17.024;2022-12-07T03:53:07;6.0;;;5.5;;
68319;SDS011;55168;51.120;17.024;2022-12-07T03:54:06;6.0;;;5.5;;
68319;SDS011;55168;51.120;17.024;2022-12-07T03:55:11;6.2;;;5.6;;
68319;SDS011;55168;51.120;17.024;2022-12-07T03:56:01;6.2;;;5.6;;
68319;SDS011;55168;51.120;17.024;2022-12-07T03:57:01;6.2;;;5.6;;
68319;SDS011;55168;51.120;17.024;2022-12-07T03:58:05;6.2;;;5.6;;
68319;SDS011;55168;51.120;17.024;2022-12-07T03:59:00;6.2;;;5.6;;
68319;SDS011;55168;51.120;17.024;2022-12-07T04:00:00;6.2;;;5.6;;
68319;SDS011;55168;51.120;17.024;2022-12-07T04:01:00;6.2;;;5.6;;
68319;SDS011;55168;51.120;17.024;2022-12-07T04:02:03;6.2;;;5.6;;
68319;SDS011;55168;51.120;17.024;2022-12-07T04:03:00;6.2;;;5.6;;
68319;SDS011;55168;51.120;17.024;2022-12-07T04:04:00;6.2;;;5.6;;
68319;SDS011;55168;51.120;17.024;2022-12-07T04:05:00;6.5;;;5.7;;
68319;SDS011;55168;51.120;17.024;2022-12-07T04:06:00;6.5;;;5.7;;
68319;SDS011;55168;51.120;17.024;2022-12-07T04:07:00;6.5;;;5.7;;
68319;SDS011;55168;51.120;17.024;2022-12-07T04:08:00;6.5;;;5.7;;
68319;SDS011;55168;51.120;17.024;2022-12-07T04:09:00;6.5;;;5.7;;
68319;SDS011;55168;51.120;17.024;2022-12-07T04:10:00;5.4;;;4.9;;
68319;SDS011;55168;51.120;17.024;2022-12-07T04:11:00;5.4;;;4.9;;
68319;SDS011;55168;51.120;17.024;2022-12-07T04:12:00;5.4;;;4.9;;
68319;SDS011;55168;51.120;17.024;2022-12-07T04:13:00;5.4;;;4.9;;
68319;SDS011;55168;51.120;17.024;2022-12-07T04:14:00;5.4;;;4.9;;
68319;SDS011;55168;51.120;17.024;2022-12-07T04:15:00;5.1;;;4.6;;
68319;SDS011;55168;51.120;17.024;2022-12-07T04:16:00;5.1;;;4.6;;
68319;SDS011;55168;51.120;17.024;2022-12-07T04:17:00;5.1;;;4.6;;
68319;SDS011;55168;51.120;17.024;2022-12-07T04:18:00;5.1;;;4.6;;
68319;SDS011;55168;51.120;17.024;2022-12-07T04:19:00;5.1;;;4.6;;
68319;SDS011;55168;51.120;17.024;2022-12-07T04:20:00;4.8;;;4.4;;
68319;SDS011;55168;51.120;17.024;2022-12-07T04:21:00;4.8;;;4.4;;
68319;SDS011;55168;51.120;17.024;2022-12-07T04:22:01;4.8;;;4.4;;
68319;SDS011;55168;51.120;17.024;2022-12-07T04:23:00;4.8;;;4.4;;
68319;SDS011;55168;51.120;17.024;2022-12-07T04:24:00;4.8;;;4.4;;
68319;SDS011;55168;51.120;17.024;2022-12-07T04:25:00;4.6;;;4.2;;
68319;SDS011;55168;51.120;17.024;2022-12-07T04:26:00;4.6;;;4.2;;
68319;SDS011;55168;51.120;17.024;2022-12-07T04:27:00;4.6;;;4.2;;
68319;SDS011;55168;51.120;17.024;2022-12-07T04:28:00;4.6;;;4.2;;
68319;SDS011;55168;51.120;17.024;2022-12-07T04:29:00;4.6;;;4.2;;
68319;SDS011;55168;51.120;17.024;2022-12-07T04:30:00;4.5;;;4.1;;
68319;SDS011;55168;51.120;17.024;2022-12-07T04:31:00;4.5;;;4.1;;
68319;SDS011;55168;51.120;17.024;2022-12-07T04:32:00;4.5;;;4.1;;
68319;SDS011;55168;51.120;17.024;2022-12-07T04:33:00;4.5;;;4.1;;
68319;SDS011;55168;51.120;17.024;2022-12-07T04:34:00;4.5;;;4.1;;
68319;SDS011;55168;51.120;17.024;2022-12-07T04:35:00;4.4;;;4.0;;
68319;SDS011;55168;51.120;17.024;2022-12-07T04:36:00;4.4;;;4.0;;
68319;SDS011;55168;51.120;17.024;2022-12-07T04:37:00;4.4;;;4.0;;
68319;SDS011;55168;51.120;17.024;2022-12-07T04:38:00;4.4;;;4.0;;
68319;SDS011;55168;51.120;17.024;2022-12-07T04:39:00;4.4;;;4.0;;
68319;SDS011;55168;51.120;17.024;2022-12-07T04:40:00;4.0;;;3.7;;
68319;SDS011;55168;51.120;17.024;2022-12-07T04:41:05;4.0;;;3.7;;
68319;SDS011;55168;51.120;17.024;2022-12-07T04:42:00;4.0;;;3.7;;
68319;SDS011;55168;51.120;17.024;2022-12-07T04:43:00;4.0;;;3.7;;
68319;SDS011;55168;51.120;17.024;2022-12-07T04:44:02;4.0;;;3.7;;
68319;SDS011;55168;51.120;17.024;2022-12-07T04:45:00;4.1;;;3.7;;
68319;SDS011;55168;51.120;17.024;2022-12-07T04:46:00;4.1;;;3.7;;
68319;SDS011;55168;51.120;17.024;2022-12-07T04:47:00;4.1;;;3.7;;
68319;SDS011;55168;51.120;17.024;2022-12-07T04:48:00;4.1;;;3.7;;
68319;SDS011;55168;51.120;17.024;2022-12-07T04:49:00;4.1;;;3.7;;
68319;SDS011;55168;51.120;17.024;2022-12-07T04:50:00;4.3;;;3.9;;
68319;SDS011;55168;51.120;17.024;2022-12-07T04:51:00;4.3;;;3.9;;
68319;SDS011;55168;51.120;17.024;2022-12-07T04:52:00;4.3;;;3.9;;
68319;SDS011;55168;51.120;17.024;2022-12-07T04:53:00;4.3;;;3.9;;
68319;SDS011;55168;51.120;17.024;2022-12-07T04:54:00;4.3;;;3.9;;
68319;SDS011;55168;51.120;17.024;2022-12-07T04:55:00;4.0;;;3.7;;
68319;SDS011;55168;51.120;17.024;2022-12-07T04:56:00;4.0;;;3.7;;
68319;SDS011;55168;51.120;17.024;2022-12-07T04:57:00;4.0;;;3.7;;
68319;SDS011;55168;51.120;17.024;2022-12-07T04:58:00;4.0;;;3.7;;
68319;SDS011;55168;51.120;17.024;2022-12-07T04:59:00;4.0;;;3.7;;
68319;SDS011;55168;51.120;17.024;2022-12-07T05:00:00;4.2;;;3.9;;
68319;SDS011;55168;51.120;17.024;2022-12-07T05:01:00;4.2;;;3.9;;
68319;SDS011;55168;51.120;17.024;2022-12-07T05:02:00;4.2;;;3.9;;
68319;SDS011;55168;51.120;17.024;2022-12-07T05:03:00;4.2;;;3.9;;
68319;SDS011;55168;51.120;17.024;2022-12-07T05:04:00;4.2;;;3.9;;
68319;SDS011;55168;51.120;17.024;2022-12-07T05:05:00;4.5;;;4.1;;
68319;SDS011;55168;51.120;17.024;2022-12-07T05:06:00;4.5;;;4.1;;
68319;SDS011;55168;51.120;17.024;2022-12-07T05:07:00;4.5;;;4.1;;
68319;SDS011;55168;51.120;17.024;2022-12-07T05:08:00;4.5;;;4.1;;
68319;SDS011;55168;51.120;17.024;2022-12-07T05:09:00;4.5;;;4.1;;
68319;SDS011;55168;51.120;17.024;2022-12-07T05:10:00;4.6;;;4.2;;
68319;SDS011;55168;51.120;17.024;2022-12-07T05:11:01;4.6;;;4.2;;
68319;SDS011;55168;51.120;17.024;2022-12-07T05:12:00;4.6;;;4.2;;
68319;SDS011;55168;51.120;17.024;2022-12-07T05:13:00;4.6;;;4.2;;
68319;SDS011;55168;51.120;17.024;2022-12-07T05:14:01;4.6;;;4.2;;
68319;SDS011;55168;51.120;17.024;2022-12-07T05:15:00;4.6;;;4.2;;
68319;SDS011;55168;51.120;17.024;2022-12-07T05:16:00;4.6;;;4.2;;
68319;SDS011;55168;51.120;17.024;2022-12-07T05:17:00;4.6;;;4.2;;
68319;SDS011;55168;51.120;17.024;2022-12-07T05:18:00;4.6;;;4.2;;
68319;SDS011;55168;51.120;17.024;2022-12-07T05:19:00;4.6;;;4.2;;
68319;SDS011;55168;51.120;17.024;2022-12-07T05:20:00;5.0;;;4.5;;
68319;SDS011;55168;51.120;17.024;2022-12-07T05:21:00;5.0;;;4.5;;
68319;SDS011;55168;51.120;17.024;2022-12-07T05:22:00;5.0;;;4.5;;
68319;SDS011;55168;51.120;17.024;2022-12-07T05:23:00;5.0;;;4.5;;
68319;SDS011;55168;51.120;17.024;2022-12-07T05:24:00;5.0;;;4.5;;
68319;SDS011;55168;51.120;17.024;2022-12-07T05:25:00;5.0;;;4.6;;
68319;SDS011;55168;51.120;17.024;2022-12-07T05:26:00;5.0;;;4.6;;
68319;SDS011;55168;51.120;17.024;2022-12-07T05:27:00;5.0;;;4.6;;
68319;SDS011;55168;51.120;17.024;2022-12-07T05:28:00;5.0;;;4.6;;
68319;SDS011;55168;51.120;17.024;2022-12-07T05:29:00;5.0;;;4.6;;
68319;SDS011;55168;51.120;17.024;2022-12-07T05:30:00;5.2;;;4.7;;
68319;SDS011;55168;51.120;17.024;2022-12-07T05:31:00;5.2;;;4.7;;
68319;SDS011;55168;51.120;17.024;2022-12-07T05:32:00;5.2;;;4.7;;
68319;SDS011;55168;51.120;17.024;2022-12-07T05:33:00;5.2;;;4.7;;
68319;SDS011;55168;51.120;17.024;2022-12-07T05:34:00;5.8;;;4.9;;
68319;SDS011;55168;51.120;17.024;2022-12-07T05:35:00;5.8;;;4.9;;
68319;SDS011;55168;51.120;17.024;2022-12-07T05:36:00;5.8;;;4.9;;
68319;SDS011;55168;51.120;17.024;2022-12-07T05:37:00;5.8;;;4.9;;
68319;SDS011;55168;51.120;17.024;2022-12-07T05:38:00;5.8;;;4.9;;
68319;SDS011;55168;51.120;17.024;2022-12-07T05:39:00;6.0;;;5.4;;
68319;SDS011;55168;51.120;17.024;2022-12-07T05:40:00;6.0;;;5.4;;
68319;SDS011;55168;51.120;17.024;2022-12-07T05:41:00;6.0;;;5.4;;
68319;SDS011;55168;51.120;17.024;2022-12-07T05:42:00;6.0;;;5.4;;
68319;SDS011;55168;51.120;17.024;2022-12-07T05:43:00;6.0;;;5.4;;
68319;SDS011;55168;51.120;17.024;2022-12-07T05:44:00;8.1;;;6.6;;
68319;SDS011;55168;51.120;17.024;2022-12-07T05:45:00;8.1;;;6.6;;
68319;SDS011;55168;51.120;17.024;2022-12-07T05:46:00;8.1;;;6.6;;
68319;SDS011;55168;51.120;17.024;2022-12-07T05:47:00;8.1;;;6.6;;
68319;SDS011;55168;51.120;17.024;2022-12-07T05:48:00;8.1;;;6.6;;
68319;SDS011;55168;51.120;17.024;2022-12-07T05:49:00;8.4;;;7.2;;
68319;SDS011;55168;51.120;17.024;2022-12-07T05:50:00;8.4;;;7.2;;
68319;SDS011;55168;51.120;17.024;2022-12-07T05:51:00;8.4;;;7.2;;
68319;SDS011;55168;51.120;17.024;2022-12-07T05:52:00;8.4;;;7.2;;
68319;SDS011;55168;51.120;17.024;2022-12-07T05:53:00;8.4;;;7.2;;
68319;SDS011;55168;51.120;17.024;2022-12-07T05:54:00;9.6;;;8.4;;
68319;SDS011;55168;51.120;17.024;2022-12-07T05:55:00;9.6;;;8.4;;
68319;SDS011;55168;51.120;17.024;2022-12-07T05:56:00;9.6;;;8.4;;
68319;SDS011;55168;51.120;17.024;2022-12-07T05:57:00;9.6;;;8.4;;
68319;SDS011;55168;51.120;17.024;2022-12-07T05:58:00;9.6;;;8.4;;
68319;SDS011;55168;51.120;17.024;2022-12-07T05:59:00;11.3;;;9.2;;
68319;SDS011;55168;51.120;17.024;2022-12-07T06:00:00;11.3;;;9.2;;
68319;SDS011;55168;51.120;17.024;2022-12-07T06:01:00;11.3;;;9.2;;
68319;SDS011;55168;51.120;17.024;2022-12-07T06:02:02;11.3;;;9.2;;
68319;SDS011;55168;51.120;17.024;2022-12-07T06:03:00;11.3;;;9.2;;
68319;SDS011;55168;51.120;17.024;2022-12-07T06:04:00;11.7;;;8.9;;
68319;SDS011;55168;51.120;17.024;2022-12-07T06:05:00;11.7;;;8.9;;
68319;SDS011;55168;51.120;17.024;2022-12-07T06:06:00;11.7;;;8.9;;
68319;SDS011;55168;51.120;17.024;2022-12-07T06:07:00;11.7;;;8.9;;
68319;SDS011;55168;51.120;17.024;2022-12-07T06:08:00;11.7;;;8.9;;
68319;SDS011;55168;51.120;17.024;2022-12-07T06:09:00;13.6;;;9.9;;
68319;SDS011;55168;51.120;17.024;2022-12-07T06:10:00;13.6;;;9.9;;
68319;SDS011;55168;51.120;17.024;2022-12-07T06:11:00;13.6;;;9.9;;
68319;SDS011;55168;51.120;17.024;2022-12-07T06:12:00;13.6;;;9.9;;
68319;SDS011;55168;51.120;17.024;2022-12-07T06:13:00;13.6;;;9.9;;
68319;SDS011;55168;51.120;17.024;2022-12-07T06:14:00;13.8;;;10.2;;
68319;SDS011;55168;51.120;17.024;2022-12-07T06:15:00;13.8;;;10.2;;
68319;SDS011;55168;51.120;17.024;2022-12-07T06:16:00;13.8;;;10.2;;
68319;SDS011;55168;51.120;17.024;2022-12-07T06:17:00;13.8;;;10.2;;
68319;SDS011;55168;51.120;17.024;2022-12-07T06:18:00;13.8;;;10.2;;
68319;SDS011;55168;51.120;17.024;2022-12-07T06:19:00;13.9;;;10.8;;
68319;SDS011;55168;51.120;17.024;2022-12-07T06:20:00;13.9;;;10.8;;
68319;SDS011;55168;51.120;17.024;2022-12-07T06:21:00;13.9;;;10.8;;
68319;SDS011;55168;51.120;17.024;2022-12-07T06:22:01;13.9;;;10.8;;
68319;SDS011;55168;51.120;17.024;2022-12-07T06:23:00;13.9;;;10.8;;
68319;SDS011;55168;51.120;17.024;2022-12-07T06:24:00;14.1;;;11.0;;
68319;SDS011;55168;51.120;17.024;2022-12-07T06:25:00;14.1;;;11.0;;